Chippewa Valley Regional Airport
KEAU : now visible

Airfield :











YOU CAN JOIN US ON...

 
LOGIN :

Register | Disclaimer

   EN    FR    IT 

 









Legend :    VFR   Marginal VFR   IFR   Intensive IFR   Very Intensive IFR
Visi :
Ceiling :
>= 8 km
>= 3000ft
5 to 8 km
1000 to 3000 ft
1500m to 5 km
500 to 1000 ft
800 to 1500m
200 to 500 ft
< 800m
< 200 ft
Symbols :   Thunderstorms  Fog  Heavy snow  Heavy precipitations  Wind > 20 kt






- Airport Elevation : 913 ft
- IATA code : EAU


KEAU - Chippewa Valley Regional

CURRENT METAR :
  • 250756Z AUTO 20003KT 10SM CLR 19/17 A2982 RMK AO2 SLP093 T01940167

EXPIRED METARs :
  • 250656Z AUTO 19003KT 10SM CLR 20/16 A2982 RMK AO2 SLP092 T02000161
  • 250556Z AUTO 00000KT 10SM CLR 20/16 A2982 RMK AO2 SLP095 T02000161 10256 20200 402720128 58006

TAF KEAU
Valid from the 25 at 06:00 until the 26 at 06:00 UTC


250520Z 2506/2606 15004KT P6SM BKN050
FM251100 00000KT 5SM BR BKN100
FM251400 24005KT 6SM -SHRA BR BKN050
FM252000 24005KT P6SM BKN040
FM260300 VRB03KT P6SM BKN080
KZMP FIR / North America



MET'MAP, your aeronautical weather chart ! - Copyright ORBIFLY December 2007 - Disclaimer

ORBIFLY MET'MAP TEAM :

Programming & Development : Alexandra Zaïnal
Concept & original design : Baudouin d'Aumeries
Assistance for programming : Marc-Olivier Méhu
Technical & hardware support : Manuel Goepfert

Contact : metmap@orbifly.com




SOURCES & CREDITS :

   NOAA       Earth
Advisory